createdAt,value
2023-03-06T00:01:06.424Z,99625.70
2023-03-06T00:06:09.267Z,99626.77
2023-03-06T00:11:14.976Z,99628.86
2023-03-06T00:16:17.923Z,99626.57
2023-03-06T00:21:21.037Z,99625.69
2023-03-06T00:26:23.865Z,99626.77
2023-03-06T00:31:26.852Z,99627.25
2023-03-06T00:36:29.803Z,99624.27
2023-03-06T00:41:32.690Z,99626.92
2023-03-06T00:46:35.586Z,99621.48
2023-03-06T00:51:38.402Z,99623.21
2023-03-06T00:56:41.202Z,99618.95
2023-03-06T01:01:43.993Z,99616.75
2023-03-06T01:06:48.178Z,99619.77
2023-03-06T01:11:51.091Z,99616.10
2023-03-06T01:16:53.908Z,99614.02
2023-03-06T01:21:56.884Z,99609.63
2023-03-06T01:26:59.721Z,99608.82
2023-03-06T01:32:02.690Z,99608.78
2023-03-06T01:37:05.671Z,99609.11
2023-03-06T01:42:08.568Z,99602.98
2023-03-06T01:47:11.417Z,99599.90
2023-03-06T01:52:16.464Z,99600.48
2023-03-06T01:57:22.349Z,99599.36
2023-03-06T02:02:25.295Z,99599.10
2023-03-06T02:07:28.202Z,99591.70
2023-03-06T02:12:31.204Z,99596.92
2023-03-06T02:17:35.173Z,99595.48
2023-03-06T02:22:53.142Z,99592.91
2023-03-06T02:27:55.953Z,99593.79
2023-03-06T02:32:59.020Z,99591.77
2023-03-06T02:38:09.469Z,99588.55
2023-03-06T02:43:12.727Z,99591.03
2023-03-06T02:48:16.194Z,99590.91
2023-03-06T02:53:20.502Z,99584.27
2023-03-06T02:58:23.345Z,99581.31
2023-03-06T03:03:26.244Z,99583.23
2023-03-06T03:08:29.059Z,99584.64
2023-03-06T03:13:32.484Z,99585.88
2023-03-06T03:18:35.447Z,99586.38
2023-03-06T03:23:38.742Z,99586.48
2023-03-06T03:28:41.549Z,99584.92
2023-03-06T03:33:44.350Z,99586.82
2023-03-06T03:38:47.192Z,99588.29
2023-03-06T03:43:50.065Z,99582.76
2023-03-06T03:48:52.953Z,99583.16
2023-03-06T03:53:58.221Z,99580.58
2023-03-06T03:59:01.004Z,99580.05
2023-03-06T04:04:03.808Z,99577.44
2023-03-06T04:09:06.667Z,99572.63
2023-03-06T04:14:09.965Z,99575.81
2023-03-06T04:19:13.089Z,99571.72
2023-03-06T04:24:17.550Z,99570.75
2023-03-06T04:29:20.474Z,99564.42
2023-03-06T04:34:23.455Z,99561.85
2023-03-06T04:39:26.665Z,99562.77
2023-03-06T04:44:30.960Z,99559.86
2023-03-06T04:49:33.740Z,99561.16
2023-03-06T04:54:36.520Z,99557.78
2023-03-06T04:59:39.366Z,99552.70
2023-03-06T05:04:43.526Z,99551.20
2023-03-06T05:09:46.750Z,99554.91
2023-03-06T05:14:49.701Z,99559.77
2023-03-06T05:19:52.747Z,99560.76
2023-03-06T05:24:55.651Z,99553.84
2023-03-06T05:29:58.673Z,99554.34
2023-03-06T05:35:01.643Z,99552.22
2023-03-06T05:40:06.856Z,99549.64
2023-03-06T05:45:10.963Z,99552.52
2023-03-06T05:50:15.058Z,99559.60
2023-03-06T05:55:19.645Z,99558.64
2023-03-06T06:00:23.112Z,99563.36
2023-03-06T06:05:25.905Z,99562.33
2023-03-06T06:10:29.010Z,99567.02
2023-03-06T06:15:31.906Z,99567.34
2023-03-06T06:20:36.585Z,99572.45
2023-03-06T06:25:39.395Z,99568.35
2023-03-06T06:30:42.254Z,99568.84
2023-03-06T06:35:45.304Z,99571.27
2023-03-06T06:41:11.742Z,99571.52
2023-03-06T06:46:47.169Z,99570.50
2023-03-06T06:51:34.634Z,99568.09
2023-03-06T06:56:37.540Z,99564.43
2023-03-06T07:01:40.664Z,99566.48
2023-03-06T07:06:43.611Z,99566.30
2023-03-06T07:11:46.503Z,99563.49
2023-03-06T07:16:49.477Z,99558.06
2023-03-06T07:22:16.840Z,99553.13
2023-03-06T07:27:19.723Z,99540.16
2023-03-06T07:32:22.723Z,99542.30
2023-03-06T07:37:25.580Z,99542.88
2023-03-06T07:42:29.364Z,99543.42
2023-03-06T07:47:32.233Z,99541.54
2023-03-06T07:52:35.080Z,99548.20
2023-03-06T07:57:38.379Z,99556.74
2023-03-06T08:02:41.829Z,99553.42
2023-03-06T08:07:45.641Z,99554.07
2023-03-06T08:12:48.447Z,99554.06
2023-03-06T08:17:51.396Z,99550.98
2023-03-06T08:22:54.310Z,99552.98
2023-03-06T08:27:57.118Z,99552.83
2023-03-06T08:33:01.468Z,99558.02
2023-03-06T08:38:04.378Z,99556.15
2023-03-06T08:43:13.065Z,99547.60
2023-03-06T08:48:16.984Z,99544.38
2023-03-06T08:53:20.622Z,99540.80
2023-03-06T08:58:24.473Z,99535.94
2023-03-06T09:03:27.300Z,99533.98
2023-03-06T09:08:30.087Z,99530.59
2023-03-06T09:13:33.251Z,99525.95
2023-03-06T09:18:36.362Z,99521.30
2023-03-06T09:23:39.531Z,99525.19
2023-03-06T09:28:42.496Z,99523.81
2023-03-06T09:33:47.988Z,99523.81
2023-03-06T09:38:52.392Z,99523.33
2023-03-06T09:44:08.772Z,99519.63
2023-03-06T09:49:37.529Z,99517.63
2023-03-06T09:55:10.428Z,99509.40
2023-03-06T10:00:20.544Z,99510.33
2023-03-06T10:05:27.555Z,99508.35
2023-03-06T10:11:05.172Z,99507.22
2023-03-06T10:16:32.456Z,99500.87
2023-03-06T10:22:02.701Z,99494.64
2023-03-06T10:27:40.012Z,99494.27
2023-03-06T10:32:55.786Z,99488.67
2023-03-06T10:38:24.776Z,99486.90
2023-03-06T10:43:28.241Z,99484.27
2023-03-06T10:48:35.565Z,99485.61
2023-03-06T10:53:42.388Z,99484.04
2023-03-06T10:58:45.248Z,99477.05
2023-03-06T11:03:48.178Z,99470.34
2023-03-06T11:08:50.990Z,99465.98
2023-03-06T11:13:58.784Z,99459.63
2023-03-06T11:19:05.501Z,99449.95
2023-03-06T11:24:16.002Z,99442.17
2023-03-06T11:29:39.225Z,99438.08
2023-03-06T11:34:50.675Z,99429.10
2023-03-06T11:40:05.303Z,99422.38
2023-03-06T11:45:37.381Z,99420.88
2023-03-06T11:51:06.085Z,99409.59
2023-03-06T11:56:31.972Z,99403.77
2023-03-06T12:01:54.636Z,99396.80
2023-03-06T12:07:20.051Z,99394.66
2023-03-06T12:12:47.954Z,99386.15
2023-03-06T12:18:23.060Z,99385.88
2023-03-06T12:23:58.485Z,99389.73
2023-03-06T12:29:28.749Z,99381.66
2023-03-06T12:35:23.325Z,99375.61
2023-03-06T12:40:57.325Z,99374.91
2023-03-06T12:46:36.105Z,99371.48
2023-03-06T12:51:39.909Z,99362.42
2023-03-06T12:56:42.755Z,99354.69
2023-03-06T13:02:01.183Z,99349.48
2023-03-06T13:07:38.110Z,99344.23
2023-03-06T13:13:22.723Z,99343.40
2023-03-06T13:18:25.517Z,99347.88
2023-03-06T13:23:42.821Z,99339.30
2023-03-06T13:28:50.754Z,99326.38
2023-03-06T13:33:53.676Z,99315.80
2023-03-06T13:38:57.810Z,99310.67
2023-03-06T13:44:05.158Z,99306.02
2023-03-06T13:49:08.050Z,99310.52
2023-03-06T13:54:47.796Z,99318.35
2023-03-06T14:00:15.773Z,99313.02
2023-03-06T14:05:18.580Z,99308.40
2023-03-06T14:10:26.129Z,99302.17
2023-03-06T14:15:50.664Z,99297.56
2023-03-06T14:21:13.460Z,99294.09
2023-03-06T14:26:22.416Z,99292.45
2023-03-06T14:31:29.270Z,99288.64
2023-03-06T14:36:36.752Z,99285.30
2023-03-06T14:41:39.632Z,99283.85
2023-03-06T14:46:43.087Z,99277.79
2023-03-06T14:51:50.201Z,99279.55
2023-03-06T14:57:06.607Z,99280.55
2023-03-06T15:02:11.630Z,99280.61
2023-03-06T15:07:21.838Z,99275.83
2023-03-06T15:12:24.648Z,99277.84
2023-03-06T15:17:27.487Z,99280.82
2023-03-06T15:22:38.475Z,99278.75
2023-03-06T15:27:41.286Z,99279.67
2023-03-06T15:32:44.598Z,99277.48
2023-03-06T15:37:47.386Z,99274.98
2023-03-06T15:42:51.327Z,99275.78
2023-03-06T15:47:55.036Z,99271.31
2023-03-06T15:52:58.102Z,99269.30
2023-03-06T15:58:02.150Z,99271.27
2023-03-06T16:03:05.013Z,99269.63
2023-03-06T16:08:17.770Z,99273.39
2023-03-06T16:13:26.455Z,99274.05
2023-03-06T16:18:31.131Z,99276.53
2023-03-06T16:23:38.752Z,99280.89
2023-03-06T16:28:44.268Z,99282.11
2023-03-06T16:33:47.286Z,99279.02
2023-03-06T16:38:50.501Z,99280.21
2023-03-06T16:43:53.405Z,99280.01
2023-03-06T16:48:56.425Z,99281.31
2023-03-06T16:54:00.051Z,99281.30
2023-03-06T16:59:02.843Z,99280.66
2023-03-06T17:04:05.838Z,99281.14
2023-03-06T17:09:10.883Z,99285.36
2023-03-06T17:14:14.531Z,99283.41
2023-03-06T17:19:17.387Z,99286.56
2023-03-06T17:24:20.625Z,99285.04
2023-03-06T17:29:23.569Z,99289.30
2023-03-06T17:34:26.443Z,99283.52
2023-03-06T17:39:37.569Z,99284.66
2023-03-06T17:44:40.475Z,99281.52
2023-03-06T17:49:43.348Z,99279.50
2023-03-06T17:54:46.355Z,99282.15
2023-03-06T17:59:49.359Z,99282.82
2023-03-06T18:04:52.518Z,99277.64
2023-03-06T18:09:56.636Z,99273.69
2023-03-06T18:14:59.535Z,99279.32
2023-03-06T18:20:02.300Z,99280.20
2023-03-06T18:25:06.933Z,99277.23
2023-03-06T18:30:11.266Z,99278.35
2023-03-06T18:35:14.363Z,99281.38
2023-03-06T18:40:17.937Z,99280.52
2023-03-06T18:45:20.852Z,99276.08
2023-03-06T18:50:23.918Z,99279.38
2023-03-06T18:55:26.992Z,99274.73
2023-03-06T19:00:30.976Z,99275.51
2023-03-06T19:05:34.079Z,99275.35
2023-03-06T19:10:38.527Z,99273.89
2023-03-06T19:15:47.326Z,99268.70
2023-03-06T19:20:52.799Z,99263.87
2023-03-06T19:25:59.021Z,99264.48
2023-03-06T19:31:25.099Z,99264.28
2023-03-06T19:36:33.279Z,99262.06
2023-03-06T19:41:36.961Z,99260.27
2023-03-06T19:46:40.753Z,99257.52
2023-03-06T19:51:44.020Z,99258.55
2023-03-06T19:56:46.824Z,99254.98
2023-03-06T20:01:49.698Z,99252.08
2023-03-06T20:06:52.628Z,99253.17
2023-03-06T20:11:55.857Z,99254.45
2023-03-06T20:16:58.653Z,99254.77
2023-03-06T20:22:01.720Z,99256.45
2023-03-06T20:27:04.648Z,99254.05
2023-03-06T20:32:07.525Z,99253.42
2023-03-06T20:37:10.363Z,99249.48
2023-03-06T20:42:13.248Z,99248.37
2023-03-06T20:47:16.145Z,99248.90
2023-03-06T20:52:19.027Z,99250.39
2023-03-06T20:57:21.824Z,99251.31
2023-03-06T21:02:24.698Z,99255.27
2023-03-06T21:07:27.947Z,99249.96
2023-03-06T21:12:31.236Z,99251.48
2023-03-06T21:17:34.109Z,99250.43
2023-03-06T21:22:36.988Z,99249.73
2023-03-06T21:27:40.139Z,99239.26
2023-03-06T21:32:42.968Z,99238.84
2023-03-06T21:37:46.408Z,99239.26
2023-03-06T21:42:49.341Z,99235.03
2023-03-06T21:47:52.142Z,99239.86
2023-03-06T21:52:56.012Z,99243.91
2023-03-06T21:57:58.869Z,99244.62
2023-03-06T22:03:05.046Z,99237.06
2023-03-06T22:08:07.898Z,99238.95
2023-03-06T22:13:12.052Z,99248.20
2023-03-06T22:18:15.947Z,99243.34
2023-03-06T22:23:18.765Z,99251.66
2023-03-06T22:28:21.633Z,99256.77
2023-03-06T22:33:24.477Z,99258.02
2023-03-06T22:38:27.289Z,99262.34
2023-03-06T22:43:31.637Z,99259.26
2023-03-06T22:48:34.668Z,99263.58
2023-03-06T22:53:37.962Z,99270.66
2023-03-06T22:58:40.835Z,99268.45
2023-03-06T23:03:49.230Z,99276.81
2023-03-06T23:08:58.726Z,99281.95
2023-03-06T23:14:01.737Z,99285.09
2023-03-06T23:19:05.290Z,99280.29
2023-03-06T23:24:08.133Z,99280.45
2023-03-06T23:29:11.062Z,99282.36
2023-03-06T23:34:13.839Z,99288.84
2023-03-06T23:39:16.866Z,99291.42
2023-03-06T23:44:19.725Z,99301.36
2023-03-06T23:49:22.590Z,99304.95
2023-03-06T23:54:25.457Z,99315.05
2023-03-06T23:59:29.544Z,99310.33
